Time;durP1;ratioP1;P1;durP2;ratioP2;P2;SDS_P1;SDS_P2;PMS_P1;PMS_P2;Temp;Humidity;BMP_temperature;BMP_pressure;BME280_temperature;BME280_humidity;BME280_pressure;Samples;Min_cycle;Max_cycle;Signal;HPM_P1;HPM_P2
2022/10/20 00:01:28;;;;;;;1.15;0.90;;;4.00;1.00;;;3.40;88.18;99417.78;5006281;28;129458;-70
2022/10/20 00:03:57;;;;;;;1.33;0.88;;;4.00;1.00;;;3.35;88.42;99423.13;5021905;28;129552;-71
2022/10/20 00:06:28;;;;;;;1.40;0.90;;;4.00;1.00;;;3.38;88.90;99430.66;5007508;28;118994;-74
2022/10/20 00:08:59;;;;;;;3.25;1.00;;;4.00;1.00;;;3.31;88.50;99430.13;5022223;28;119376;-73
2022/10/20 00:11:29;;;;;;;3.20;0.98;;;4.00;1.00;;;3.27;88.80;99429.03;5021985;28;130406;-73
2022/10/20 00:13:59;;;;;;;2.30;1.08;;;4.00;1.00;;;3.31;89.27;99432.81;5006999;28;128428;-75
2022/10/20 00:16:31;;;;;;;2.85;1.02;;;4.00;1.00;;;3.28;89.50;99431.44;5021936;28;119506;-70
2022/10/20 00:19:00;;;;;;;2.05;0.95;;;4.00;1.00;;;3.21;89.34;99441.59;5007307;28;118281;-73
2022/10/20 00:21:30;;;;;;;2.50;0.90;;;4.00;1.00;;;3.19;90.20;99435.72;5021133;27;130276;-71
2022/10/20 00:24:00;;;;;;;1.52;1.00;;;3.90;1.00;;;3.25;89.63;99426.59;5021360;28;129383;-75
2022/10/20 00:26:31;;;;;;;1.77;1.00;;;3.90;1.00;;;3.13;89.19;99459.03;5022742;28;122636;-73
2022/10/20 00:29:01;;;;;;;1.40;0.90;;;3.90;1.00;;;3.10;89.17;99459.56;4990891;28;121226;-74
2022/10/20 00:31:31;;;;;;;2.40;1.27;;;3.90;1.00;;;3.12;90.08;99427.91;5021164;28;129626;-71
2022/10/20 00:34:00;;;;;;;1.70;1.08;;;3.80;1.00;;;3.10;90.82;99445.34;5021176;28;129368;-73
2022/10/20 00:36:28;;;;;;;1.58;0.95;;;3.70;1.00;;;3.01;90.54;99437.00;5021685;28;119638;-71
2022/10/20 00:39:01;;;;;;;1.58;0.90;;;3.60;1.00;;;2.95;90.52;99438.84;5021678;28;119541;-72
2022/10/20 00:41:30;;;;;;;2.67;1.10;;;3.70;1.00;;;2.95;90.69;99440.75;5021622;28;130166;-74
2022/10/20 00:44:01;;;;;;;10.23;1.10;;;3.60;1.00;;;2.87;91.38;99434.00;5020084;28;129742;-75
2022/10/20 00:46:38;;;;;;;1.13;0.93;;;3.50;1.00;;;2.82;91.99;99440.16;5020832;28;120613;-74
2022/10/20 00:49:14;;;;;;;1.55;1.10;;;3.40;1.00;;;2.72;92.71;99453.50;5021271;28;119534;-74
2022/10/20 00:51:44;;;;;;;2.53;1.02;;;3.40;1.00;;;2.63;92.09;99450.50;4988870;28;128856;-74
2022/10/20 00:54:20;;;;;;;1.02;0.90;;;3.40;1.00;;;2.58;92.29;99447.00;5021239;28;131350;-73
2022/10/20 00:56:50;;;;;;;2.00;1.05;;;3.30;1.00;;;2.55;92.00;99444.81;5003718;28;119415;-73
2022/10/20 00:59:23;;;;;;;2.60;1.23;;;3.30;1.00;;;2.57;92.08;99442.69;5021081;28;119293;-75
2022/10/20 01:01:53;;;;;;;2.05;0.93;;;3.20;1.00;;;2.50;92.04;99443.72;5020700;28;129189;-75
2022/10/20 01:04:22;;;;;;;1.35;1.05;;;3.20;1.00;;;2.48;91.89;99453.91;5021398;28;130175;-75
2022/10/20 01:06:51;;;;;;;1.30;0.85;;;3.20;1.00;;;2.46;92.16;99457.91;4990063;28;118415;-73
2022/10/20 01:09:19;;;;;;;1.88;1.35;;;3.20;1.00;;;2.42;92.20;99460.28;5021219;28;119285;-74
2022/10/20 01:11:57;;;;;;;1.48;1.00;;;3.20;1.00;;;2.39;92.94;99468.03;5020772;28;130332;-71
2022/10/20 01:14:38;;;;;;;1.90;1.25;;;3.10;1.00;;;2.33;93.10;99465.31;5021076;28;129460;-73
2022/10/20 01:17:19;;;;;;;2.20;1.05;;;3.00;1.00;;;2.21;93.81;99464.69;5020104;28;123145;-74
2022/10/20 01:20:27;;;;;;;3.25;1.15;;;3.00;1.00;;;2.24;94.50;99471.41;5021484;28;121681;-74
2022/10/20 01:23:43;;;;;;;2.60;1.07;;;2.90;1.00;;;2.11;95.50;99473.47;5020755;28;130346;-75
2022/10/20 01:26:43;;;;;;;2.78;1.00;;;2.90;1.00;;;2.10;96.16;99471.88;5020292;28;129338;-74
2022/10/20 01:29:19;;;;;;;2.13;1.02;;;2.80;1.00;;;1.98;97.04;99474.69;5020513;28;120161;-73
2022/10/20 01:31:58;;;;;;;2.53;1.00;;;2.70;1.00;;;1.93;97.56;99481.88;5002809;28;119893;-74
2022/10/20 01:34:33;;;;;;;1.58;1.10;;;2.70;1.00;;;1.91;97.79;99474.09;5020219;28;130366;-73
2022/10/20 01:37:08;;;;;;;1.60;1.00;;;2.60;1.00;;;1.85;98.64;99479.66;5021154;28;129717;-73
2022/10/20 01:39:44;;;;;;;2.88;1.00;;;2.50;1.00;;;1.73;99.64;99487.84;5020994;28;119519;-73
2022/10/20 01:42:19;;;;;;;2.42;1.10;;;2.50;1.00;;;1.66;100.00;99488.06;5006019;28;119144;-73
2022/10/20 01:44:52;;;;;;;2.65;1.00;;;2.50;1.00;;;1.61;100.00;99501.38;5019178;28;129757;-71
2022/10/20 01:47:22;;;;;;;2.72;1.10;;;2.40;1.00;;;1.59;100.00;99503.50;5021791;28;129319;-75
2022/10/20 01:49:53;;;;;;;2.35;1.00;;;2.40;1.00;;;1.50;100.00;99503.16;5019800;28;119862;-72
2022/10/20 01:52:23;;;;;;;1.88;1.00;;;2.40;1.00;;;1.51;100.00;99506.63;4988819;28;118548;-73
2022/10/20 01:54:52;;;;;;;2.42;1.15;;;2.40;1.00;;;1.45;100.00;99497.75;5002020;28;130573;-72
2022/10/20 01:57:41;;;;;;;3.15;1.42;;;2.30;1.00;;;1.43;100.00;99495.34;5020088;28;129513;-73
2022/10/20 02:00:14;;;;;;;3.90;1.20;;;2.20;1.00;;;1.40;100.00;99506.53;5022800;28;119218;-70
2022/10/20 02:03:08;;;;;;;2.25;0.98;;;2.20;1.00;;;1.37;100.00;99512.38;5020565;28;119448;-75
2022/10/20 02:06:00;;;;;;;2.17;1.20;;;2.20;1.00;;;1.29;100.00;99526.16;5019586;28;130346;-73
2022/10/20 02:08:37;;;;;;;2.33;1.30;;;2.10;1.00;;;1.24;100.00;99518.09;5005083;28;128989;-74
2022/10/20 02:11:10;;;;;;;1.52;1.00;;;2.10;1.00;;;1.20;100.00;99511.63;5019299;28;122329;-75
2022/10/20 02:13:39;;;;;;;2.72;1.10;;;2.00;1.00;;;1.14;100.00;99508.09;5020754;28;121715;-71
2022/10/20 02:16:18;;;;;;;1.23;1.10;;;1.90;1.00;;;1.13;100.00;99517.16;5019989;28;130233;-72
2022/10/20 02:18:48;;;;;;;2.40;1.10;;;1.90;1.00;;;1.06;100.00;99509.34;5019841;28;129657;-75
2022/10/20 02:21:17;;;;;;;2.35;1.15;;;1.90;1.00;;;1.05;100.00;99515.72;5020358;28;119074;-73
2022/10/20 02:23:49;;;;;;;2.28;1.13;;;1.80;1.00;;;1.04;100.00;99524.81;5005216;28;118408;-72
2022/10/20 02:26:24;;;;;;;3.72;1.50;;;1.80;1.00;;;1.01;100.00;99525.31;5019545;28;130011;-75
2022/10/20 02:28:58;;;;;;;4.97;1.38;;;1.80;1.00;;;0.96;100.00;99527.91;5005083;28;128208;-74
2022/10/20 02:31:29;;;;;;;2.42;1.20;;;1.70;1.00;;;0.96;100.00;99521.75;5018827;28;119865;-73
2022/10/20 02:33:58;;;;;;;3.80;1.30;;;1.70;1.00;;;0.91;100.00;99525.16;5020085;28;119464;-72
2022/10/20 02:36:29;;;;;;;4.47;1.40;;;1.70;1.00;;;0.84;100.00;99538.72;5017672;28;130037;-71
2022/10/20 02:38:58;;;;;;;1.50;1.10;;;1.70;1.00;;;0.85;100.00;99539.50;5004295;28;128845;-71
2022/10/20 02:41:26;;;;;;;2.25;1.15;;;1.70;1.00;;;0.78;100.00;99549.56;5019645;28;119669;-73
2022/10/20 02:43:55;;;;;;;2.95;1.40;;;1.60;4.90;;;0.74;100.00;99551.91;5019647;28;119331;-70
2022/10/20 02:46:24;;;;;;;2.97;1.50;;;1.50;11.90;;;0.70;100.00;99551.59;5004313;28;129740;-76
2022/10/20 02:48:54;;;;;;;1.88;1.10;;;1.50;17.80;;;0.73;100.00;99555.63;5025539;27;130175;-72
2022/10/20 02:51:22;;;;;;;2.53;1.20;;;1.40;24.10;;;0.67;100.00;99549.44;5023154;28;119533;-75
2022/10/20 02:53:53;;;;;;;2.35;1.42;;;1.30;35.10;;;0.56;100.00;99563.66;5005808;28;120047;-71
2022/10/20 02:56:22;;;;;;;2.53;1.27;;;1.30;38.80;;;0.42;100.00;99575.72;5008126;28;129634;-78
2022/10/20 02:58:50;;;;;;;1.52;1.10;;;1.20;52.00;;;0.40;100.00;99567.16;4991548;28;128814;-76
2022/10/20 03:01:19;;;;;;;5.18;1.20;;;1.20;56.40;;;0.29;100.00;99577.66;5021899;28;122310;-75
2022/10/20 03:03:47;;;;;;;4.25;1.17;;;1.10;68.50;;;0.22;100.00;99574.34;5015247;28;121649;-72
2022/10/20 03:06:17;;;;;;;3.83;1.40;;;1.00;82.40;;;0.12;100.00;99587.50;5004297;28;130603;-71
2022/10/20 03:08:46;;;;;;;1.80;1.15;;;1.00;82.40;;;0.13;100.00;99589.13;5022406;28;129647;-72
2022/10/20 03:11:15;;;;;;;5.05;1.63;;;0.90;83.70;;;0.08;100.00;99591.69;5022804;28;119784;-72
2022/10/20 03:13:43;;;;;;;2.63;1.42;;;0.80;94.90;;;0.03;100.00;99594.28;5023057;28;119815;-72
2022/10/20 03:16:12;;;;;;;3.60;1.60;;;0.80;97.10;;;0.03;100.00;99597.75;5022593;28;129958;-71
2022/10/20 03:18:40;;;;;;;5.32;1.73;;;0.80;99.10;;;-0.07;100.00;99606.38;5023084;28;130090;-74
2022/10/20 03:21:08;;;;;;;2.80;1.52;;;0.80;99.90;;;-0.14;100.00;99610.25;5023440;28;119510;-75
2022/10/20 03:23:38;;;;;;;3.33;1.70;;;0.70;99.90;;;-0.15;100.00;99606.78;5022601;28;120775;-72
2022/10/20 03:26:10;;;;;;;2.72;1.65;;;0.70;99.90;;;-0.23;100.00;99615.16;5021315;28;130254;-74
2022/10/20 03:28:39;;;;;;;3.45;1.80;;;0.70;99.90;;;-0.21;100.00;99615.72;5022336;28;129898;-74
2022/10/20 03:31:07;;;;;;;4.30;1.80;;;0.70;99.90;;;-0.24;100.00;99613.53;5022799;28;119135;-73
2022/10/20 03:33:36;;;;;;;3.78;1.70;;;0.60;99.90;;;-0.24;100.00;99618.88;5022376;28;119511;-74
2022/10/20 03:36:05;;;;;;;3.75;1.85;;;0.60;99.90;;;-0.29;100.00;99610.78;5007514;28;129117;-77
2022/10/20 03:38:34;;;;;;;3.55;1.90;;;0.60;99.90;;;-0.30;100.00;99622.47;5004330;28;129514;-76
2022/10/20 03:41:04;;;;;;;4.55;2.20;;;0.60;99.90;;;-0.30;100.00;99622.47;5007671;28;119272;-76
2022/10/20 03:43:33;;;;;;;3.53;1.90;;;0.50;99.90;;;-0.33;100.00;99618.41;5022978;28;119297;-72
2022/10/20 03:46:03;;;;;;;2.90;1.60;;;0.50;99.90;;;-0.32;100.00;99624.59;5022782;28;130641;-73
2022/10/20 03:48:32;;;;;;;5.85;1.90;;;0.50;99.90;;;-0.39;100.00;99630.88;5007070;28;129012;-73
2022/10/20 03:51:01;;;;;;;3.25;1.85;;;0.50;99.90;;;-0.39;100.00;99630.88;5021504;28;122135;-74
2022/10/20 03:53:30;;;;;;;3.53;1.70;;;0.50;99.90;;;-0.37;100.00;99633.28;5022140;28;121607;-72
2022/10/20 03:55:59;;;;;;;4.38;2.22;;;0.40;99.90;;;-0.40;100.00;99639.91;5021087;28;129983;-73
2022/10/20 03:58:29;;;;;;;3.33;1.90;;;0.40;99.90;;;-0.42;100.00;99642.00;5021616;28;129593;-74
2022/10/20 04:00:58;;;;;;;3.47;2.00;;;0.40;99.90;;;-0.40;100.00;99644.44;5007630;28;119048;-73
2022/10/20 04:03:27;;;;;;;4.15;2.10;;;0.30;99.90;;;-0.36;100.00;99656.22;5007271;28;118390;-74
2022/10/20 04:05:55;;;;;;;3.35;1.95;;;0.30;99.90;;;-0.41;100.00;99656.13;4990416;28;130188;-74
2022/10/20 04:08:24;;;;;;;4.28;2.13;;;0.30;99.90;;;-0.34;100.00;99658.66;5022182;28;130218;-73
2022/10/20 04:10:53;;;;;;;4.90;2.17;;;0.40;99.90;;;-0.28;100.00;99663.06;5021990;28;120355;-73
2022/10/20 04:13:21;;;;;;;4.57;2.10;;;0.40;99.90;;;-0.22;100.00;99675.44;5021929;28;119329;-74
2022/10/20 04:15:51;;;;;;;6.13;2.00;;;0.40;99.90;;;-0.27;100.00;99667.34;5020687;28;130545;-73
2022/10/20 04:18:19;;;;;;;5.43;2.10;;;0.40;99.90;;;-0.26;100.00;99674.31;5022031;28;129458;-73
2022/10/20 04:20:49;;;;;;;3.65;2.38;;;0.40;99.90;;;-0.22;100.00;99672.78;5021736;28;121200;-73
2022/10/20 04:23:17;;;;;;;4.32;2.10;;;0.50;99.90;;;-0.20;100.00;99678.72;5022325;28;119698;-71
2022/10/20 04:25:47;;;;;;;6.40;2.97;;;0.40;99.90;;;-0.24;100.00;99682.88;5018025;28;130776;-73
2022/10/20 04:28:18;;;;;;;5.30;2.50;;;0.40;99.90;;;-0.22;100.00;99688.78;5016865;28;130064;-75
2022/10/20 04:30:47;;;;;;;4.50;2.75;;;0.40;99.90;;;-0.26;100.00;99688.47;5003568;28;119428;-72
2022/10/20 04:33:17;;;;;;;4.95;2.30;;;0.40;99.90;;;-0.22;100.00;99688.78;5021469;28;119474;-71
2022/10/20 04:35:46;;;;;;;9.98;2.60;;;0.40;99.90;;;-0.12;100.00;99686.34;5021094;28;129523;-75
2022/10/20 04:38:14;;;;;;;5.57;2.70;;;0.50;99.90;;;-0.11;100.00;99687.13;5021116;28;129579;-74
2022/10/20 04:40:43;;;;;;;4.78;2.78;;;0.50;99.90;;;-0.10;100.00;99692.25;5020357;28;121774;-74
2022/10/20 04:43:11;;;;;;;3.92;2.30;;;0.50;99.90;;;-0.12;100.00;99689.00;5006539;28;121906;-74
2022/10/20 04:45:39;;;;;;;5.57;2.88;;;0.50;99.90;;;-0.09;100.00;99701.88;5006558;28;129551;-74
2022/10/20 04:48:08;;;;;;;5.07;2.50;;;0.50;99.90;;;-0.07;100.00;99698.97;5012062;28;130151;-73
2022/10/20 04:50:38;;;;;;;4.70;2.38;;;0.50;99.90;;;-0.10;100.00;99702.91;4982988;28;120338;-74
2022/10/20 04:53:10;;;;;;;4.03;2.38;;;0.50;99.90;;;-0.10;100.00;99708.25;5020734;28;120251;-75
2022/10/20 04:55:39;;;;;;;4.85;2.65;;;0.50;99.90;;;-0.10;100.00;99708.25;5019455;28;130406;-75
2022/10/20 04:58:07;;;;;;;5.03;2.13;;;0.50;99.90;;;-0.08;100.00;99716.00;5020241;28;129731;-73
2022/10/20 05:00:38;;;;;;;6.47;2.40;;;0.50;99.90;;;-0.08;100.00;99711.50;5006315;28;118981;-74
2022/10/20 05:03:06;;;;;;;5.30;2.40;;;0.50;99.90;;;-0.08;100.00;99722.19;5020606;28;119506;-72
2022/10/20 05:05:35;;;;;;;3.35;2.08;;;0.50;99.90;;;-0.13;100.00;99714.06;5001994;28;129966;-74
2022/10/20 05:08:05;;;;;;;5.78;2.50;;;0.50;99.90;;;-0.13;100.00;99727.41;5006507;28;128956;-75
2022/10/20 05:10:33;;;;;;;4.75;2.53;;;0.50;99.90;;;-0.03;100.00;99730.28;5007692;28;118942;-77
2022/10/20 05:13:02;;;;;;;3.65;2.17;;;0.50;99.90;;;-0.09;100.00;99730.41;5007092;28;119029;-76
2022/10/20 05:15:30;;;;;;;3.70;2.42;;;0.50;99.90;;;-0.10;100.00;99729.59;5006083;28;129344;-70
2022/10/20 05:17:59;;;;;;;5.32;2.20;;;0.60;99.90;;;-0.04;100.00;99736.66;5021331;28;130588;-73
2022/10/20 05:20:28;;;;;;;4.55;2.47;;;0.60;99.90;;;0.06;100.00;99738.72;5020704;28;119933;-74
2022/10/20 05:22:56;;;;;;;6.18;2.63;;;0.60;99.90;;;0.18;100.00;99746.69;5021256;28;119623;-75
2022/10/20 05:25:26;;;;;;;6.38;2.75;;;0.70;99.90;;;0.34;100.00;99751.31;5006427;28;128938;-73
2022/10/20 05:27:55;;;;;;;4.38;2.50;;;0.70;99.90;;;0.46;100.00;99753.91;5005780;28;128778;-74
2022/10/20 05:30:23;;;;;;;4.35;2.42;;;0.80;99.90;;;0.42;100.00;99759.97;5018718;28;122060;-73
2022/10/20 05:32:52;;;;;;;5.82;2.10;;;0.80;99.90;;;0.40;100.00;99759.41;5006074;28;121226;-73
2022/10/20 05:35:20;;;;;;;5.82;2.33;;;0.80;99.90;;;0.48;100.00;99772.38;5005350;28;129913;-77
2022/10/20 05:37:49;;;;;;;4.43;1.83;;;0.90;99.90;;;0.50;100.00;99768.41;5020388;28;129213;-74
2022/10/20 05:40:18;;;;;;;4.38;2.60;;;0.90;99.90;;;0.60;100.00;99762.44;5020476;28;119393;-74
2022/10/20 05:42:48;;;;;;;4.35;2.40;;;0.90;99.90;;;0.90;100.00;99772.06;5020530;28;119334;-75
2022/10/20 05:45:17;;;;;;;4.70;2.30;;;1.10;99.90;;;1.10;100.00;99773.47;4988668;28;128998;-73
2022/10/20 05:47:45;;;;;;;5.65;2.53;;;1.20;99.90;;;1.22;100.00;99766.19;5022402;28;129152;-74
2022/10/20 05:50:14;;;;;;;5.03;2.30;;;1.20;97.10;;;1.43;100.00;99768.13;5005403;28;119095;-74
2022/10/20 05:52:43;;;;;;;3.25;1.95;;;1.30;95.70;;;1.50;100.00;99767.97;5019859;28;119557;-75
2022/10/20 05:55:11;;;;;;;2.90;1.80;;;1.40;91.50;;;1.50;100.00;99777.84;5018755;28;129804;-73
2022/10/20 05:57:40;;;;;;;4.43;1.95;;;1.40;82.80;;;1.34;100.00;99782.97;5002269;28;129660;-72
2022/10/20 06:00:12;;;;;;;3.80;2.17;;;1.30;82.70;;;1.51;100.00;99779.47;5005480;28;118751;-74
2022/10/20 06:02:40;;;;;;;6.57;3.33;;;1.40;83.10;;;1.46;100.00;99788.22;5019903;28;119940;-74
2022/10/20 06:05:09;;;;;;;19.45;8.23;;;1.50;83.00;;;1.81;100.00;99789.81;5020154;28;129711;-75
2022/10/20 06:07:37;;;;;;;15.85;6.53;;;1.60;69.70;;;1.92;100.00;99793.44;5020339;28;129473;-73
2022/10/20 06:10:06;;;;;;;37.08;14.25;;;1.80;55.70;;;1.82;100.00;99801.31;5020270;28;119515;-77
2022/10/20 06:12:36;;;;;;;21.90;8.45;;;1.80;45.60;;;1.88;100.00;99805.69;5005658;28;118311;-73
2022/10/20 06:15:07;;;;;;;11.27;4.97;;;1.80;46.30;;;1.73;100.00;99799.06;5005009;28;129134;-76
2022/10/20 06:17:37;;;;;;;7.47;3.63;;;1.70;53.60;;;1.74;100.00;99795.31;5019801;28;129540;-72
2022/10/20 06:20:06;;;;;;;4.20;2.30;;;1.70;38.60;;;1.88;100.00;99811.03;5003332;28;122131;-72
2022/10/20 06:22:35;;;;;;;4.07;1.77;;;1.90;39.50;;;1.87;100.00;99820.13;5020189;28;123315;-73
2022/10/20 06:25:03;;;;;;;2.80;1.80;;;1.90;24.20;;;1.77;100.00;99810.06;4988616;28;129826;-74
2022/10/20 06:27:32;;;;;;;2.58;1.63;;;1.80;28.90;;;1.71;100.00;99811.84;5020793;28;130205;-74
2022/10/20 06:30:00;;;;;;;2.65;1.70;;;1.80;32.00;;;1.76;100.00;99822.66;5018714;28;120325;-74
2022/10/20 06:32:29;;;;;;;2.95;1.60;;;2.00;26.00;;;1.91;100.00;99831.97;5003659;28;119483;-76
2022/10/20 06:34:59;;;;;;;2.60;1.60;;;2.00;20.80;;;1.85;100.00;99827.59;5004681;28;128986;-74
2022/10/20 06:37:27;;;;;;;5.05;1.80;;;2.00;19.00;;;1.85;100.00;99827.59;5014458;28;129393;-73
2022/10/20 06:39:56;;;;;;;3.35;1.70;;;2.00;12.70;;;1.83;100.00;99832.38;4985167;28;119300;-74
2022/10/20 06:42:24;;;;;;;2.25;1.50;;;1.90;20.20;;;1.82;100.00;99823.53;5000075;28;120212;-72
2022/10/20 06:44:55;;;;;;;2.88;1.67;;;2.00;22.70;;;1.60;100.00;99831.50;4981344;28;130553;-75
2022/10/20 06:47:23;;;;;;;2.55;1.60;;;1.80;14.10;;;1.73;100.00;99841.03;4967782;28;128699;-73
2022/10/20 06:49:52;;;;;;;3.42;1.83;;;1.90;18.00;;;1.76;100.00;99836.03;4999670;28;120164;-77
2022/10/20 06:52:22;;;;;;;29.98;11.63;;;1.90;15.20;;;1.54;100.00;99838.66;4999525;28;119570;-72
2022/10/20 06:54:50;;;;;;;16.98;7.15;;;1.80;20.30;;;1.59;100.00;99849.41;4981556;28;129790;-73
2022/10/20 06:57:19;;;;;;;5.47;2.47;;;1.80;15.00;;;1.84;100.00;99842.00;4999514;28;130077;-75
2022/10/20 06:59:48;;;;;;;12.98;5.88;;;2.00;12.80;;;1.99;100.00;99847.59;5001192;28;119618;-77
2022/10/20 07:02:17;;;;;;;11.40;4.82;;;2.10;9.70;;;2.16;100.00;99856.41;4982625;28;120758;-74
2022/10/20 07:04:45;;;;;;;7.15;3.00;;;2.20;2.70;;;2.16;100.00;99855.59;5005067;28;129919;-77
2022/10/20 07:07:14;;;;;;;5.32;2.50;;;2.20;4.20;;;2.26;100.00;99850.38;5022790;28;129615;-74
2022/10/20 07:09:44;;;;;;;5.00;1.95;;;2.30;1.00;;;2.13;100.00;99861.44;4999857;28;122127;-78
2022/10/20 07:12:12;;;;;;;3.38;1.70;;;2.20;1.00;;;2.08;100.00;99866.75;5018940;28;122494;-74
2022/10/20 07:14:41;;;;;;;5.10;1.95;;;2.20;1.00;;;2.37;100.00;99862.06;4978474;28;128654;-74
2022/10/20 07:17:10;;;;;;;5.25;2.15;;;2.50;1.00;;;2.47;100.00;99861.38;4999490;28;129405;-74
2022/10/20 07:19:38;;;;;;;12.23;4.43;;;2.40;1.00;;;2.44;100.00;99861.84;4981275;28;119800;-73
2022/10/20 07:22:07;;;;;;;8.77;4.03;;;2.50;1.00;;;2.59;99.84;99858.56;4999285;28;119444;-72
2022/10/20 07:24:35;;;;;;;5.45;2.03;;;2.50;1.00;;;2.38;100.00;99863.66;4998309;28;129980;-73
2022/10/20 07:27:05;;;;;;;9.13;4.28;;;2.50;1.00;;;2.67;100.00;99858.13;4998914;28;129466;-74
2022/10/20 07:29:34;;;;;;;6.93;2.47;;;2.80;1.00;;;2.49;99.75;99865.41;4999046;28;119827;-72
2022/10/20 07:32:02;;;;;;;7.60;3.83;;;2.60;1.00;;;2.56;99.53;99867.91;5001286;28;119603;-77
2022/10/20 07:34:30;;;;;;;5.78;2.67;;;2.70;1.00;;;2.77;98.59;99866.25;5001132;28;130371;-76
2022/10/20 07:36:59;;;;;;;14.75;7.32;;;2.80;1.00;;;2.64;97.92;99875.50;5002463;28;129435;-74
2022/10/20 07:39:28;;;;;;;4.10;1.95;;;2.80;1.00;;;2.81;98.17;99869.28;4987376;28;118823;-74
2022/10/20 07:41:57;;;;;;;6.40;2.70;;;2.90;1.00;;;2.93;97.62;99863.75;4970985;28;118440;-74
2022/10/20 07:44:27;;;;;;;11.13;5.60;;;3.00;1.00;;;3.16;96.09;99873.38;5000998;28;130318;-74
2022/10/20 07:46:56;;;;;;;4.32;1.85;;;3.20;1.00;;;3.26;95.35;99869.97;5001027;28;130053;-80
2022/10/20 07:49:25;;;;;;;8.55;4.13;;;3.30;1.00;;;3.42;94.56;99877.94;5002228;28;120032;-75
2022/10/20 07:51:53;;;;;;;10.82;5.50;;;3.40;1.00;;;3.60;92.68;99874.06;4988716;28;119519;-75
2022/10/20 07:54:22;;;;;;;9.27;4.88;;;3.50;1.00;;;3.58;91.33;99876.22;4987341;28;128574;-74
2022/10/20 07:56:50;;;;;;;4.63;2.60;;;3.40;1.00;;;3.75;92.66;99876.03;5001375;28;129253;-72
2022/10/20 07:59:19;;;;;;;6.30;3.08;;;3.70;1.00;;;4.05;89.69;99884.59;5000705;28;122058;-72
2022/10/20 08:01:49;;;;;;;5.30;2.70;;;3.90;1.00;;;3.95;88.49;99870.03;5001905;28;121834;-74
2022/10/20 08:04:17;;;;;;;5.78;3.30;;;3.80;1.00;;;3.91;89.01;99879.69;5002174;28;129811;-72
2022/10/20 08:06:46;;;;;;;2.70;1.50;;;3.80;1.00;;;3.96;88.10;99887.75;5002070;28;130481;-74
2022/10/20 08:09:14;;;;;;;3.72;2.20;;;3.80;1.00;;;4.23;87.98;99878.00;4987005;28;118390;-76
2022/10/20 08:11:43;;;;;;;4.18;1.77;;;4.10;1.00;;;4.37;85.62;99892.56;5001845;28;119361;-75
2022/10/20 08:14:11;;;;;;;4.25;1.77;;;4.10;1.00;;;4.35;87.19;99889.34;5001134;28;129950;-75
2022/10/20 08:16:40;;;;;;;2.00;1.40;;;4.20;1.00;;;4.38;86.15;99888.81;4986514;28;129633;-75
2022/10/20 08:19:10;;;;;;;5.32;2.20;;;4.20;1.00;;;4.66;85.01;99900.25;4987329;28;119306;-76
2022/10/20 08:21:38;;;;;;;3.63;1.73;;;4.40;1.00;;;4.60;84.61;99901.31;5003139;28;119426;-74
2022/10/20 08:24:07;;;;;;;5.35;2.75;;;4.40;1.00;;;4.93;84.79;99900.06;4987956;28;129482;-73
2022/10/20 08:26:35;;;;;;;3.85;1.55;;;4.70;1.00;;;4.80;83.64;99908.63;5003557;28;129796;-75
2022/10/20 08:29:04;;;;;;;3.55;1.50;;;4.60;1.00;;;4.98;82.81;99902.78;4985820;28;119389;-73
2022/10/20 08:31:33;;;;;;;5.43;2.10;;;4.70;1.00;;;5.08;82.06;99911.94;5001598;28;119965;-77
2022/10/20 08:34:01;;;;;;;3.65;1.70;;;4.80;1.00;;;5.09;81.17;99914.38;5009423;28;129866;-76
2022/10/20 08:36:32;;;;;;;3.08;1.40;;;4.70;1.00;;;5.23;80.80;99914.69;5021425;28;129462;-73
2022/10/20 08:39:00;;;;;;;3.92;1.70;;;4.90;1.00;;;5.06;81.29;99914.09;5005635;28;119391;-75
2022/10/20 08:41:33;;;;;;;2.80;1.50;;;4.80;1.00;;;5.31;80.36;99906.09;5021429;28;119674;-74
2022/10/20 08:44:06;;;;;;;3.17;1.52;;;5.00;1.00;;;5.34;80.04;99910.13;5020412;27;129748;-72
2022/10/20 08:46:37;;;;;;;2.40;1.33;;;5.10;1.00;;;5.52;77.90;99911.53;5004680;28;129741;-73
2022/10/20 08:49:14;;;;;;;3.78;1.80;;;5.20;1.00;;;5.76;78.00;99912.63;5020384;28;122377;-74
2022/10/20 08:51:43;;;;;;;;;;;5.40;1.00;;;5.94;77.48;99921.22;5022869;28;121837;-73
2022/10/20 08:54:16;;;;;;;3.65;1.48;;;5.60;1.00;;;5.72;78.62;99916.13;5021313;28;130454;-76
2022/10/20 08:56:46;;;;;;;5.82;2.28;;;5.40;1.00;;;5.87;77.47;99928.75;5020740;28;129437;-73
2022/10/20 08:59:29;;;;;;;3.53;1.60;;;5.50;1.00;;;5.56;76.33;99926.03;5003581;28;119449;-74
2022/10/20 09:01:58;;;;;;;2.33;1.70;;;5.20;1.00;;;5.71;78.00;99919.88;5006950;28;102917;-75
2022/10/20 09:04:34;;;;;;;1.85;1.10;;;5.50;1.00;;;5.76;76.07;99931.47;5006581;28;128706;-75
2022/10/20 09:07:18;;;;;;;2.27;1.33;;;5.50;1.00;;;5.84;76.65;99919.31;5021728;28;130196;-74
2022/10/20 09:09:47;;;;;;;4.72;1.40;;;5.50;1.00;;;6.26;76.25;99928.22;5006023;28;119008;-76
2022/10/20 09:12:17;;;;;;;2.67;1.50;;;5.90;1.00;;;5.97;74.98;99933.38;5006194;28;118841;-70
2022/10/20 09:14:45;;;;;;;2.50;1.17;;;5.60;1.00;;;6.05;76.03;99928.25;5020061;28;130697;-72
2022/10/20 09:17:17;;;;;;;3.05;1.40;;;5.70;1.00;;;6.10;74.94;99922.84;5020667;28;129977;-78
2022/10/20 09:19:52;;;;;;;3.90;1.30;;;5.70;1.00;;;6.39;75.09;99919.59;5020321;28;119453;-75
2022/10/20 09:22:22;;;;;;;3.50;1.30;;;6.20;1.00;;;6.33;72.42;99925.25;5006359;28;119703;-80
2022/10/20 09:24:55;;;;;;;3.17;1.30;;;5.80;1.00;;;6.02;74.17;99920.72;5006684;28;129337;-77
2022/10/20 09:27:31;;;;;;;2.45;1.40;;;5.70;1.00;;;6.21;74.25;99917.47;5007178;28;128676;-73
2022/10/20 09:30:18;;;;;;;3.25;1.30;;;5.90;1.00;;;6.22;74.20;99911.00;5022343;28;120527;-71
2022/10/20 09:32:49;;;;;;;3.92;1.60;;;6.00;1.00;;;6.59;72.70;99923.28;5021709;28;119901;-76
2022/10/20 09:35:26;;;;;;;2.92;1.50;;;6.20;1.00;;;6.68;72.73;99918.94;4989770;28;130571;-75
2022/10/20 09:38:03;;;;;;;2.90;1.58;;;6.30;1.00;;;6.96;72.42;99913.97;5019383;28;130211;-77
2022/10/20 09:40:32;;;;;;;4.18;1.63;;;6.60;1.00;;;6.79;71.66;99920.56;5019764;28;121903;-78
2022/10/20 09:43:08;;;;;;;4.70;1.77;;;6.30;1.00;;;7.00;71.58;99906.97;5020508;28;121818;-75
2022/10/20 09:45:53;;;;;;;3.25;1.52;;;6.60;1.00;;;7.19;70.65;99907.91;5020120;28;130813;-72
2022/10/20 09:48:27;;;;;;;2.03;1.17;;;6.80;1.00;;;7.27;66.91;99922.72;5021790;27;129504;-74
2022/10/20 09:50:57;;;;;;;2.00;1.10;;;6.80;1.00;;;7.20;67.32;99923.03;5020949;28;120747;-75
2022/10/20 09:53:32;;;;;;;2.45;1.27;;;6.80;1.00;;;7.05;69.02;99917.72;5020723;27;119296;-72
2022/10/20 09:56:02;;;;;;;3.33;1.60;;;6.80;1.00;;;7.03;68.48;99917.19;5019674;28;129778;-76
2022/10/20 09:58:34;;;;;;;3.10;1.80;;;6.70;1.00;;;7.26;66.23;99914.91;5006306;28;128549;-75
2022/10/20 10:01:05;;;;;;;1.95;1.20;;;6.80;1.00;;;7.27;67.27;99917.31;5020803;28;120033;-76
2022/10/20 10:03:43;;;;;;;3.83;1.33;;;6.80;1.00;;;7.17;68.38;99914.69;5005466;28;118614;-75
2022/10/20 10:06:29;;;;;;;4.10;1.70;;;6.90;1.00;;;7.34;64.56;99917.03;4988360;28;129294;-76
2022/10/20 10:09:01;;;;;;;1.80;1.30;;;6.90;1.00;;;7.19;66.12;99920.63;5020435;28;130297;-76
2022/10/20 10:11:35;;;;;;;1.92;1.10;;;6.90;1.00;;;7.32;65.97;99913.78;5020818;28;119457;-72
2022/10/20 10:14:04;;;;;;;4.10;1.35;;;7.00;1.00;;;7.28;65.58;99923.56;5005586;28;118139;-74
2022/10/20 10:16:42;;;;;;;5.20;2.40;;;7.00;1.00;;;7.05;65.79;99920.41;5007207;28;128724;-76
2022/10/20 10:19:19;;;;;;;3.00;1.20;;;6.80;1.00;;;7.25;66.09;99913.31;5019401;28;129402;-78
2022/10/20 10:21:53;;;;;;;3.53;1.52;;;6.90;1.00;;;7.24;66.27;99912.50;5002645;28;120129;-73
2022/10/20 10:24:40;;;;;;;2.55;1.20;;;7.00;1.00;;;7.56;64.18;99909.31;5020131;28;120222;-75
2022/10/20 10:27:23;;;;;;;2.22;1.15;;;7.20;1.00;;;7.53;64.54;99909.88;4988421;28;128652;-74
2022/10/20 10:29:51;;;;;;;2.13;0.90;;;7.30;1.00;;;7.80;62.79;99903.19;5004947;28;129007;-77
2022/10/20 10:32:25;;;;;;;1.92;0.82;;;7.40;1.00;;;7.64;63.09;99904.41;5019650;28;122453;-76
2022/10/20 10:35:19;;;;;;;3.70;1.30;;;7.20;1.00;;;7.92;64.56;99902.81;5005069;28;120516;-76
2022/10/20 10:37:49;;;;;;;3.28;1.42;;;7.70;1.00;;;8.56;63.01;99913.59;5006369;28;129013;-74
2022/10/20 10:40:21;;;;;;;2.47;1.20;;;8.10;1.00;;;8.36;64.55;99909.97;4988681;28;129147;-75
2022/10/20 10:43:09;;;;;;;3.72;1.20;;;8.00;1.00;;;8.54;63.40;99911.16;5002834;28;120927;-74